Lent, Minnesota
Current Conditions -  °F | °C
As of 8:56 AM on Sunday 21 Dec 2014 (Local Time) from KCBG Reporting Station
Haze Haze  
Wind Chill: 34°   Ceiling: 300
Heat Index: 34°   Visibility: 0.75mi
Dew Point: 27°   Wind: 3mph
Humidity: 75%   Direction: 140°SE
Pressure: 29.86"   Gusts: NA
Location:  45.406°N, 93.0079°W
Report Text: KCBG 211456Z AUTO 14003KT 3/4SM HZ OVC003 01/M03 A2986 RMK AO2
Loading
Personal Weather Stations






























Interactive Weather Map New forecast layout! Learn more

10-Day Weather Forecast

Advertisements
Track Severe Weather on mobile